Time;durP1;ratioP1;P1;durP2;ratioP2;P2;SDS_P1;SDS_P2;PMS_P1;PMS_P2;Temp;Humidity;BMP_temperature;BMP_pressure;BME280_temperature;BME280_humidity;BME280_pressure;Samples;Min_cycle;Max_cycle;Signal;HPM_P1;HPM_P2
2022/06/14 00:00:57;;;;;;;13.23;3.08;;;13.60;99.90;;;;;;7395182;19;20074;-66
2022/06/14 00:03:28;;;;;;;9.32;3.20;;;13.30;99.90;;;;;;7394009;19;20042;-65
2022/06/14 00:05:58;;;;;;;9.00;2.95;;;13.40;99.90;;;;;;7391940;19;20411;-66
2022/06/14 00:08:28;;;;;;;11.43;3.08;;;13.40;99.90;;;;;;7391374;19;20452;-66
2022/06/14 00:11:00;;;;;;;7.07;3.05;;;13.10;99.90;;;;;;7393337;19;20450;-66
2022/06/14 00:13:29;;;;;;;7.63;2.97;;;13.30;99.90;;;;;;7393139;19;20015;-66
2022/06/14 00:16:01;;;;;;;9.02;3.03;;;13.20;99.90;;;;;;7391475;19;20037;-66
2022/06/14 00:18:30;;;;;;;10.15;2.85;;;13.20;99.90;;;;;;7393928;19;20019;-66
2022/06/14 00:21:01;;;;;;;7.78;3.05;;;13.20;99.90;;;;;;7395239;19;20031;-66
2022/06/14 00:23:30;;;;;;;9.02;2.92;;;13.00;99.90;;;;;;7391396;19;20088;-66
2022/06/14 00:26:02;;;;;;;12.07;3.10;;;13.10;99.90;;;;;;7393021;19;20021;-66
2022/06/14 00:28:33;;;;;;;9.98;3.30;;;13.00;99.90;;;;;;7392062;19;20022;-66
2022/06/14 00:31:09;;;;;;;10.70;2.92;;;13.00;99.90;;;;;;7391420;19;20369;-65
2022/06/14 00:33:38;;;;;;;11.82;3.10;;;13.20;99.90;;;;;;7392203;19;20014;-65
2022/06/14 00:36:10;;;;;;;8.75;3.42;;;13.00;99.90;;;;;;7394359;19;20022;-65
2022/06/14 00:38:40;;;;;;;10.05;3.03;;;12.40;99.90;;;;;;7396456;19;20054;-66
2022/06/14 00:41:09;;;;;;;10.35;2.90;;;12.90;99.90;;;;;;7393290;19;20017;-66
2022/06/14 00:43:38;;;;;;;8.38;3.08;;;12.90;99.90;;;;;;7394276;19;20358;-65
2022/06/14 00:46:20;;;;;;;10.45;3.20;;;13.00;99.90;;;;;;7394679;19;20030;-65
2022/06/14 00:48:56;;;;;;;9.93;2.90;;;13.00;99.90;;;;;;7394919;19;20022;-66
2022/06/14 00:51:29;;;;;;;7.82;2.95;;;12.80;99.90;;;;;;7386493;19;20057;-66
2022/06/14 00:54:05;;;;;;;10.38;2.97;;;13.00;99.90;;;;;;7387216;19;20369;-66
2022/06/14 00:56:40;;;;;;;9.27;3.00;;;12.80;99.90;;;;;;7389390;19;20025;-65
2022/06/14 00:59:17;;;;;;;11.65;3.20;;;12.80;99.90;;;;;;7392201;19;20042;-65
2022/06/14 01:01:52;;;;;;;9.43;3.35;;;12.80;99.90;;;;;;7390644;19;20027;-65
2022/06/14 01:04:25;;;;;;;10.27;2.95;;;12.60;99.90;;;;;;7394699;19;20010;-66
2022/06/14 01:06:58;;;;;;;11.90;2.97;;;12.80;99.90;;;;;;7390185;19;20022;-65
2022/06/14 01:09:32;;;;;;;9.85;3.05;;;12.60;99.90;;;;;;7386150;19;20022;-66
2022/06/14 01:12:04;;;;;;;8.77;3.30;;;12.80;99.90;;;;;;7387305;19;20023;-66
2022/06/14 01:14:41;;;;;;;8.23;3.05;;;12.60;99.90;;;;;;7391573;19;20040;-65
2022/06/14 01:17:15;;;;;;;9.38;3.22;;;12.50;99.90;;;;;;7390755;19;20382;-65
2022/06/14 01:19:46;;;;;;;7.55;3.15;;;12.80;99.90;;;;;;7392069;19;20018;-65
2022/06/14 01:22:33;;;;;;;11.63;3.42;;;12.50;99.90;;;;;;7399611;19;20011;-65
2022/06/14 01:25:03;;;;;;;9.02;3.20;;;12.50;99.90;;;;;;7401297;19;20074;-65
2022/06/14 01:27:35;;;;;;;12.45;3.20;;;12.40;99.90;;;;;;7399345;19;20494;-66
2022/06/14 01:30:10;;;;;;;8.88;3.25;;;12.40;99.90;;;;;;7398564;19;20014;-65
2022/06/14 01:32:45;;;;;;;7.70;3.58;;;12.50;99.90;;;;;;7397797;19;20126;-65
2022/06/14 01:35:18;;;;;;;11.35;3.75;;;12.40;99.90;;;;;;7402273;19;20496;-65
2022/06/14 01:37:53;;;;;;;11.30;3.28;;;12.10;99.90;;;;;;7399257;19;20011;-65
2022/06/14 01:40:27;;;;;;;12.15;3.45;;;12.30;99.90;;;;;;7398242;19;20082;-65
2022/06/14 01:43:16;;;;;;;7.10;2.90;;;12.60;99.90;;;;;;7399404;19;20021;-65
2022/06/14 01:45:53;;;;;;;12.05;3.38;;;12.10;99.90;;;;;;7398321;19;20026;-65
2022/06/14 01:48:29;;;;;;;11.00;3.33;;;12.30;99.90;;;;;;7400840;19;20030;-65
2022/06/14 01:53:54;;;;;;;11.40;4.05;;;12.20;99.90;;;;;;7399982;19;20412;-65
2022/06/14 01:56:40;;;;;;;8.70;3.00;;;12.10;99.90;;;;;;7397744;19;20498;-65
2022/06/14 01:59:18;;;;;;;7.30;3.10;;;12.20;99.90;;;;;;7401151;19;20015;-65
2022/06/14 02:01:54;;;;;;;10.38;3.42;;;12.40;99.90;;;;;;7397184;19;20046;-65
2022/06/14 02:04:38;;;;;;;9.85;3.13;;;12.20;99.90;;;;;;7402003;19;20477;-65
2022/06/14 02:07:24;;;;;;;8.88;3.40;;;12.10;99.90;;;;;;7395407;19;20021;-65
2022/06/14 02:10:04;;;;;;;10.82;3.20;;;12.00;99.90;;;;;;7397251;19;20035;-65
2022/06/14 02:12:41;;;;;;;11.52;3.80;;;12.00;99.90;;;;;;7395289;19;20003;-65
2022/06/14 02:15:17;;;;;;;13.85;3.05;;;11.70;99.90;;;;;;7398021;19;20078;-65
2022/06/14 02:17:51;;;;;;;8.77;3.28;;;11.90;99.90;;;;;;7393278;19;20029;-65
2022/06/14 02:20:25;;;;;;;10.88;3.55;;;11.80;99.90;;;;;;7397545;19;20094;-65
2022/06/14 02:23:00;;;;;;;7.32;3.35;;;12.00;99.90;;;;;;7398812;19;20027;-65
2022/06/14 02:25:37;;;;;;;11.30;3.40;;;11.80;99.90;;;;;;7396642;19;20027;-66
2022/06/14 02:28:12;;;;;;;12.18;3.80;;;11.80;99.90;;;;;;7396604;19;20399;-65
2022/06/14 02:30:46;;;;;;;13.23;3.60;;;11.70;99.90;;;;;;7395892;19;20024;-65
2022/06/14 02:33:22;;;;;;;11.40;3.22;;;11.90;99.90;;;;;;7393121;19;20014;-66
2022/06/14 02:35:54;;;;;;;;;;;11.80;99.90;;;;;;7396628;19;20024;-66
2022/06/14 02:38:29;;;;;;;13.18;3.33;;;11.70;99.90;;;;;;7391784;19;19970;-66
2022/06/14 02:41:06;;;;;;;11.17;3.67;;;11.70;99.90;;;;;;7399455;19;20043;-65
2022/06/14 02:43:40;;;;;;;13.52;3.35;;;11.70;99.90;;;;;;7399182;19;20018;-65
2022/06/14 02:46:15;;;;;;;8.18;3.67;;;11.70;99.90;;;;;;7398430;19;20021;-65
2022/06/14 02:48:52;;;;;;;15.35;3.60;;;11.80;99.90;;;;;;7396925;19;20033;-65
2022/06/14 02:51:26;;;;;;;11.93;3.40;;;11.70;99.90;;;;;;7395791;19;20010;-65
2022/06/14 02:54:00;;;;;;;8.75;3.05;;;11.90;99.90;;;;;;7396038;19;20006;-65
2022/06/14 02:56:37;;;;;;;10.90;4.07;;;11.70;99.90;;;;;;7399149;19;20476;-65
2022/06/14 02:59:11;;;;;;;11.32;4.10;;;12.00;99.90;;;;;;7396260;19;20018;-66
2022/06/14 03:01:45;;;;;;;13.55;3.67;;;11.70;99.90;;;;;;7395560;19;20484;-65
2022/06/14 03:04:19;;;;;;;11.13;3.55;;;12.00;99.90;;;;;;7395637;19;20526;-65
2022/06/14 03:06:57;;;;;;;12.80;3.72;;;12.00;99.90;;;;;;7396161;19;20032;-66
2022/06/14 03:09:31;;;;;;;9.48;3.53;;;11.80;99.90;;;;;;7393339;19;20052;-66
2022/06/14 03:12:12;;;;;;;10.98;3.47;;;11.90;99.90;;;;;;7394887;19;20018;-65
2022/06/14 03:14:51;;;;;;;8.93;3.30;;;11.80;99.90;;;;;;7395240;19;20006;-66
2022/06/14 03:17:27;;;;;;;10.90;3.55;;;11.80;99.90;;;;;;7393866;19;20058;-66
2022/06/14 03:20:08;;;;;;;13.50;3.55;;;11.80;99.90;;;;;;7395132;19;20350;-65
2022/06/14 03:22:45;;;;;;;12.98;3.30;;;11.80;99.90;;;;;;7394788;19;20381;-65
2022/06/14 03:25:23;;;;;;;10.45;3.20;;;11.70;99.90;;;;;;7394788;19;20015;-65
2022/06/14 03:28:01;;;;;;;12.63;3.47;;;11.80;99.90;;;;;;7394302;19;20399;-65
2022/06/14 03:30:34;;;;;;;13.02;3.40;;;12.20;99.90;;;;;;7393683;19;20007;-65
2022/06/14 03:33:07;;;;;;;12.55;3.20;;;11.80;99.90;;;;;;7393733;19;20018;-65
2022/06/14 03:35:38;;;;;;;12.18;3.70;;;11.90;99.90;;;;;;7395443;19;20385;-66
2022/06/14 03:38:12;;;;;;;10.45;3.80;;;11.90;99.90;;;;;;7392683;19;20036;-65
2022/06/14 03:40:42;;;;;;;10.02;3.70;;;11.90;99.90;;;;;;7389718;19;20022;-66
2022/06/14 03:43:15;;;;;;;9.32;3.33;;;11.90;99.90;;;;;;7397171;19;20035;-66
2022/06/14 03:45:51;;;;;;;14.05;3.40;;;12.00;99.90;;;;;;7394500;19;20364;-65
2022/06/14 03:48:21;;;;;;;12.60;3.83;;;;;;;;;;7396408;19;20104;-66
2022/06/14 03:51:01;;;;;;;7.68;3.13;;;11.90;99.90;;;;;;7395520;19;20031;-65
2022/06/14 03:53:44;;;;;;;16.67;3.90;;;12.00;99.90;;;;;;7392906;19;20014;-65
2022/06/14 03:56:31;;;;;;;8.65;3.08;;;11.90;99.90;;;;;;7395420;19;20104;-66
2022/06/14 03:59:20;;;;;;;10.43;3.70;;;11.90;99.90;;;;;;7397814;19;20015;-65
2022/06/14 04:01:53;;;;;;;8.07;3.20;;;11.80;99.90;;;;;;7396654;19;20377;-65
2022/06/14 04:04:41;;;;;;;14.27;3.65;;;11.70;99.90;;;;;;7393489;19;20389;-65
2022/06/14 04:07:19;;;;;;;9.07;3.10;;;11.70;99.90;;;;;;7395388;19;20042;-65
2022/06/14 04:09:55;;;;;;;11.48;3.42;;;11.90;99.90;;;;;;7394249;19;20011;-65
2022/06/14 04:12:33;;;;;;;7.22;3.28;;;11.70;99.90;;;;;;7392336;19;20020;-65
2022/06/14 04:15:16;;;;;;;11.35;3.40;;;11.70;99.90;;;;;;7394487;19;20018;-65
2022/06/14 04:17:52;;;;;;;8.85;3.20;;;11.70;99.90;;;;;;7394118;19;20031;-65
2022/06/14 04:20:27;;;;;;;8.70;3.45;;;11.80;99.90;;;;;;7396725;19;20014;-65
2022/06/14 04:23:12;;;;;;;8.20;3.20;;;11.70;99.90;;;;;;7394200;19;20032;-65
2022/06/14 04:25:46;;;;;;;9.18;3.42;;;11.60;99.90;;;;;;7393059;19;20329;-66
2022/06/14 04:28:23;;;;;;;14.73;3.90;;;11.60;99.90;;;;;;7395278;19;20078;-65
2022/06/14 04:31:02;;;;;;;10.65;3.25;;;11.50;99.90;;;;;;7391672;19;20017;-66
2022/06/14 04:33:39;;;;;;;13.48;3.58;;;11.80;99.90;;;;;;7393820;19;20017;-65
2022/06/14 04:36:13;;;;;;;11.52;3.80;;;11.70;99.90;;;;;;7395087;19;20024;-65
2022/06/14 04:38:46;;;;;;;13.55;3.50;;;11.70;99.90;;;;;;7392235;19;20373;-65
2022/06/14 04:41:21;;;;;;;10.20;3.38;;;11.70;99.90;;;;;;7392325;19;20014;-65
2022/06/14 04:43:52;;;;;;;9.27;3.00;;;11.70;99.90;;;;;;7393086;19;20037;-65
2022/06/14 04:46:29;;;;;;;11.50;3.50;;;11.80;99.90;;;;;;7391505;19;20021;-66
2022/06/14 04:49:04;;;;;;;10.82;3.47;;;11.50;99.90;;;;;;7391543;19;20010;-65
2022/06/14 04:51:38;;;;;;;9.43;4.18;;;11.90;99.90;;;;;;7391290;19;20041;-67
2022/06/14 04:54:12;;;;;;;12.15;3.35;;;12.00;99.90;;;;;;7391757;19;20348;-65
2022/06/14 04:56:47;;;;;;;15.27;3.75;;;11.80;99.90;;;;;;7394693;19;20095;-65
2022/06/14 04:59:19;;;;;;;12.23;3.67;;;11.80;99.90;;;;;;7400214;19;20026;-65
2022/06/14 05:01:53;;;;;;;9.82;3.30;;;11.70;99.90;;;;;;7399494;19;20528;-65
2022/06/14 05:04:25;;;;;;;13.53;3.70;;;11.90;99.90;;;;;;7402516;19;20032;-65
2022/06/14 05:09:44;;;;;;;9.93;3.75;;;11.90;99.90;;;;;;7331208;19;20014;-72
2022/06/14 05:12:20;;;;;;;10.82;3.35;;;11.80;99.90;;;;;;7380877;19;20026;-70
2022/06/14 05:14:53;;;;;;;9.50;3.10;;;11.80;99.90;;;;;;7386713;19;20025;-70
2022/06/14 05:17:30;;;;;;;12.88;3.72;;;11.90;99.90;;;;;;7245804;19;20022;-70
2022/06/14 05:20:07;;;;;;;9.32;3.20;;;12.00;99.90;;;;;;7398116;19;20007;-70
2022/06/14 05:22:41;;;;;;;8.68;3.00;;;12.00;99.90;;;;;;7401318;19;20018;-70
2022/06/14 05:25:12;;;;;;;15.13;3.45;;;12.10;99.90;;;;;;7394987;19;20043;-70
2022/06/14 05:27:53;;;;;;;9.57;3.10;;;12.00;99.90;;;;;;7401150;19;20030;-70
2022/06/14 05:30:51;;;;;;;9.57;3.13;;;12.20;99.90;;;;;;7395169;19;20041;-71
2022/06/14 05:33:34;;;;;;;11.70;3.75;;;12.40;99.90;;;;;;7401953;19;20022;-73
2022/06/14 05:36:07;;;;;;;9.30;3.20;;;12.30;99.90;;;;;;7399926;19;20010;-72
2022/06/14 05:38:45;;;;;;;11.05;2.55;;;12.40;99.90;;;;;;7399690;19;20023;-75
2022/06/14 05:41:19;;;;;;;10.75;3.20;;;12.50;99.90;;;;;;7395062;19;20503;-75
2022/06/14 05:43:50;;;;;;;12.85;3.10;;;12.50;99.90;;;;;;7400716;19;20496;-74
2022/06/14 05:46:25;;;;;;;9.30;2.70;;;12.60;99.90;;;;;;7400676;19;20019;-74
2022/06/14 05:49:02;;;;;;;12.55;2.80;;;12.60;99.90;;;;;;7398310;19;20022;-76
2022/06/14 05:51:36;;;;;;;14.57;2.83;;;12.50;99.90;;;;;;7400899;19;20017;-74
2022/06/14 05:54:12;;;;;;;10.68;2.90;;;12.50;99.90;;;;;;7394437;19;20014;-75
2022/06/14 05:56:45;;;;;;;9.20;2.75;;;12.60;99.90;;;;;;7400767;19;20015;-75
2022/06/14 05:59:24;;;;;;;10.13;3.05;;;12.60;99.90;;;;;;7390408;19;20014;-73
2022/06/14 06:01:59;;;;;;;8.55;2.35;;;12.60;99.90;;;;;;7399652;19;20023;-74
2022/06/14 06:04:38;;;;;;;10.38;2.45;;;12.80;99.90;;;;;;7397534;19;20397;-74
2022/06/14 06:07:11;;;;;;;12.48;2.40;;;12.50;99.90;;;;;;7395500;19;20017;-73
2022/06/14 06:09:44;;;;;;;8.32;2.80;;;12.60;99.90;;;;;;7397420;19;20035;-74
2022/06/14 06:12:21;;;;;;;8.10;2.25;;;12.80;99.90;;;;;;7399638;19;20014;-75
2022/06/14 06:14:56;;;;;;;9.07;2.20;;;12.70;99.90;;;;;;7387985;19;20026;-72
2022/06/14 06:17:30;;;;;;;9.20;2.42;;;12.70;99.90;;;;;;7396098;19;20038;-72
2022/06/14 06:20:09;;;;;;;7.88;2.17;;;12.80;99.90;;;;;;7394406;19;20020;-72
2022/06/14 06:22:45;;;;;;;9.88;2.22;;;12.90;99.90;;;;;;7399445;19;20429;-72
2022/06/14 06:25:18;;;;;;;10.50;2.30;;;12.90;99.90;;;;;;7399326;19;20014;-73
2022/06/14 06:27:52;;;;;;;8.38;2.30;;;13.00;99.90;;;;;;7397560;19;20021;-72
2022/06/14 06:30:28;;;;;;;6.70;2.38;;;12.90;99.90;;;;;;7396498;19;20039;-72
2022/06/14 06:32:58;;;;;;;14.02;2.42;;;12.80;99.90;;;;;;7397754;19;20370;-72
2022/06/14 06:35:37;;;;;;;9.57;2.60;;;12.90;99.90;;;;;;7396402;19;20479;-72
2022/06/14 06:38:14;;;;;;;12.93;2.58;;;13.10;99.90;;;;;;7396080;19;20086;-73
2022/06/14 06:43:36;;;;;;;5.30;1.90;;;13.20;99.90;;;;;;7395561;19;20082;-73
2022/06/14 06:46:13;;;;;;;11.05;2.30;;;13.20;99.90;;;;;;7396891;19;20015;-73
2022/06/14 06:48:48;;;;;;;8.70;2.35;;;13.00;99.90;;;;;;7398456;19;20019;-73
2022/06/14 06:51:24;;;;;;;6.25;2.15;;;13.10;99.90;;;;;;7396405;19;20019;-73
2022/06/14 06:54:02;;;;;;;10.35;2.30;;;13.10;99.90;;;;;;7395235;19;20015;-73
2022/06/14 06:56:37;;;;;;;5.68;2.25;;;13.00;99.90;;;;;;7396709;19;20018;-74
2022/06/14 06:59:13;;;;;;;10.20;2.75;;;13.10;99.90;;;;;;7398011;19;20019;-73
2022/06/14 07:01:44;;;;;;;10.63;2.40;;;13.20;99.90;;;;;;7399128;19;20014;-73
2022/06/14 07:04:19;;;;;;;7.22;1.95;;;13.30;99.90;;;;;;7396801;19;20491;-73
2022/06/14 07:06:54;;;;;;;7.63;1.95;;;13.20;99.90;;;;;;7396228;19;20028;-73
2022/06/14 07:09:27;;;;;;;7.70;2.05;;;13.30;99.90;;;;;;7396888;19;20023;-74
2022/06/14 07:12:00;;;;;;;8.73;2.03;;;13.40;99.90;;;;;;7396453;19;20228;-73
2022/06/14 07:14:33;;;;;;;8.27;2.47;;;13.50;99.90;;;;;;7396994;19;20011;-73
2022/06/14 07:17:09;;;;;;;9.88;2.60;;;13.50;99.90;;;;;;7393696;19;20021;-73
2022/06/14 07:19:43;;;;;;;8.18;2.10;;;13.60;99.90;;;;;;7395951;19;20018;-73
2022/06/14 07:22:20;;;;;;;7.63;2.08;;;13.50;99.90;;;;;;7397910;19;20022;-72
2022/06/14 07:24:59;;;;;;;28.63;3.78;;;13.60;99.90;;;;;;7395794;19;20033;-73
2022/06/14 07:27:33;;;;;;;8.00;2.38;;;13.50;99.90;;;;;;7396516;19;20010;-73
2022/06/14 07:30:08;;;;;;;4.53;1.83;;;13.60;99.90;;;;;;7395372;19;20022;-73
2022/06/14 07:32:42;;;;;;;9.52;2.20;;;13.80;99.90;;;;;;7395596;19;20014;-74
2022/06/14 07:35:11;;;;;;;7.25;2.10;;;13.80;99.90;;;;;;7393956;19;20033;-74
2022/06/14 07:37:46;;;;;;;8.50;1.92;;;13.80;99.90;;;;;;7391842;19;20023;-74
2022/06/14 07:40:20;;;;;;;6.43;1.95;;;14.00;99.90;;;;;;7393364;19;20019;-76
2022/06/14 07:42:55;;;;;;;9.23;2.30;;;14.00;99.90;;;;;;7393737;19;20014;-74
2022/06/14 07:45:31;;;;;;;8.32;2.15;;;14.00;99.90;;;;;;7393736;19;20028;-74
2022/06/14 07:48:06;;;;;;;8.15;2.40;;;14.20;99.90;;;;;;7390361;19;20010;-71
2022/06/14 07:50:40;;;;;;;5.55;1.98;;;14.10;99.90;;;;;;7393944;19;20363;-71
2022/06/14 07:53:16;;;;;;;5.90;1.77;;;14.20;99.90;;;;;;7397337;19;20015;-73
2022/06/14 07:55:49;;;;;;;;;;;14.20;99.90;;;;;;7397494;19;20083;-72
2022/06/14 07:58:23;;;;;;;5.15;1.83;;;14.10;99.90;;;;;;7397334;19;19915;-73
2022/06/14 08:01:11;;;;;;;9.85;2.03;;;14.00;99.90;;;;;;7395654;19;20014;-72
2022/06/14 08:03:46;;;;;;;4.85;1.95;;;14.20;99.90;;;;;;7398753;19;20496;-72
2022/06/14 08:06:19;;;;;;;7.75;2.15;;;14.30;99.90;;;;;;7397302;19;20018;-72
2022/06/14 08:08:56;;;;;;;9.07;2.00;;;14.40;99.90;;;;;;7395578;19;20015;-72
2022/06/14 08:11:42;;;;;;;8.98;2.00;;;14.40;99.90;;;;;;7396459;19;20027;-70
2022/06/14 08:14:19;;;;;;;6.63;1.83;;;14.40;99.90;;;;;;7394392;19;20475;-74
2022/06/14 08:16:52;;;;;;;6.30;2.10;;;14.50;99.90;;;;;;7393629;19;20014;-74
2022/06/14 08:19:27;;;;;;;7.75;2.10;;;14.60;99.90;;;;;;7397833;19;20039;-81
2022/06/14 08:22:01;;;;;;;5.65;2.15;;;14.80;99.90;;;;;;7394225;19;20010;-77
2022/06/14 08:24:36;;;;;;;5.57;1.90;;;14.70;99.90;;;;;;7397322;19;20026;-81
2022/06/14 08:27:09;;;;;;;5.97;1.60;;;14.50;99.90;;;;;;7397440;19;20015;-80
2022/06/14 08:29:42;;;;;;;5.10;1.50;;;14.50;99.90;;;;;;7393231;19;20578;-81
2022/06/14 08:32:18;;;;;;;7.25;1.77;;;14.70;99.90;;;;;;7397315;19;20090;-84
2022/06/14 08:34:52;;;;;;;5.05;1.55;;;14.70;99.90;;;;;;7395868;19;20035;-82
2022/06/14 08:37:27;;;;;;;5.53;2.05;;;14.70;99.90;;;;;;7396481;19;20015;-83
2022/06/14 08:40:04;;;;;;;3.55;1.67;;;14.80;99.90;;;;;;7397941;19;20015;-77
2022/06/14 08:42:39;;;;;;;2.80;1.67;;;14.90;99.90;;;;;;7393790;19;20014;-81
2022/06/14 08:45:14;;;;;;;5.13;1.95;;;14.80;99.90;;;;;;7396223;19;20031;-75
2022/06/14 08:47:59;;;;;;;5.40;1.60;;;14.90;99.90;;;;;;7394517;19;20082;-72
2022/06/14 08:51:05;;;;;;;4.22;1.60;;;14.90;99.90;;;;;;7390493;19;20022;-74
2022/06/14 08:54:12;;;;;;;6.07;1.50;;;14.80;99.90;;;;;;7395773;19;20028;-73
2022/06/14 08:57:12;;;;;;;6.68;1.90;;;15.10;99.90;;;;;;7386441;19;20030;-74
2022/06/14 09:00:11;;;;;;;5.43;2.00;;;15.10;99.90;;;;;;7393561;19;20507;-74
2022/06/14 09:03:15;;;;;;;6.32;2.22;;;15.40;99.90;;;;;;7389005;19;20086;-73
2022/06/14 09:06:07;;;;;;;4.72;1.67;;;15.20;99.90;;;;;;7385820;19;20089;-73
2022/06/14 09:09:14;;;;;;;7.53;1.90;;;15.30;99.90;;;;;;7388349;19;20637;-73
2022/06/14 09:12:18;;;;;;;4.68;1.83;;;15.40;99.90;;;;;;7385049;19;20062;-74
2022/06/14 09:15:23;;;;;;;7.22;2.17;;;15.30;99.90;;;;;;7384858;19;20038;-73
2022/06/14 09:18:12;;;;;;;6.38;1.77;;;15.20;99.90;;;;;;7389700;19;20019;-72
2022/06/14 09:20:46;;;;;;;2.88;1.30;;;15.10;99.90;;;;;;7385875;19;20014;-74
2022/06/14 09:23:21;;;;;;;7.70;1.88;;;15.20;99.90;;;;;;7383786;19;20018;-73
2022/06/14 09:26:29;;;;;;;4.03;1.50;;;15.40;99.90;;;;;;7387110;19;20011;-73
2022/06/14 09:29:31;;;;;;;5.72;1.85;;;15.40;99.90;;;;;;7390884;19;20182;-72
2022/06/14 09:32:30;;;;;;;5.28;1.60;;;15.80;99.90;;;;;;7396022;19;20014;-72
2022/06/14 09:35:17;;;;;;;4.88;1.60;;;15.80;99.90;;;;;;7389360;19;20010;-73
2022/06/14 09:38:13;;;;;;;4.88;1.48;;;16.10;99.90;;;;;;7384230;19;20016;-72
2022/06/14 09:40:52;;;;;;;4.72;1.40;;;16.00;99.90;;;;;;7387580;19;20019;-73
2022/06/14 09:43:47;;;;;;;3.85;1.45;;;16.20;99.90;;;;;;7396020;19;20078;-72
2022/06/14 09:46:49;;;;;;;7.57;1.95;;;16.20;99.90;;;;;;7389598;19;20022;-72
2022/06/14 09:49:57;;;;;;;4.00;1.83;;;16.40;99.50;;;;;;7394653;19;20026;-72
2022/06/14 09:53:02;;;;;;;4.05;1.70;;;16.10;99.90;;;;;;7396134;19;20011;-72
2022/06/14 09:56:07;;;;;;;6.10;1.58;;;16.30;99.90;;;;;;7391581;19;20074;-75
2022/06/14 09:59:04;;;;;;;5.50;2.05;;;16.10;99.60;;;;;;7389855;19;20486;-73
2022/06/14 10:01:41;;;;;;;7.05;2.67;;;16.00;99.90;;;;;;7392330;19;20490;-72
2022/06/14 10:04:38;;;;;;;5.25;2.08;;;15.90;99.90;;;;;;7379113;19;20545;-72
2022/06/14 10:07:44;;;;;;;4.55;1.77;;;15.90;99.90;;;;;;7390895;19;20401;-73
2022/06/14 10:10:39;;;;;;;4.78;1.70;;;16.00;99.90;;;;;;7386202;19;20022;-72
2022/06/14 10:13:41;;;;;;;3.50;1.50;;;16.20;99.90;;;;;;7389124;19;20035;-75
2022/06/14 10:16:18;;;;;;;3.15;1.50;;;16.10;99.90;;;;;;7382478;19;20022;-72
2022/06/14 10:19:08;;;;;;;2.60;1.55;;;16.20;99.90;;;;;;7397257;19;20018;-72
2022/06/14 10:21:43;;;;;;;3.85;1.65;;;16.10;99.90;;;;;;7390827;19;20014;-72
2022/06/14 10:24:23;;;;;;;3.95;2.00;;;16.30;99.90;;;;;;7400284;19;20018;-72
2022/06/14 10:30:10;;;;;;;4.43;2.30;;;16.20;99.90;;;;;;7395432;19;20014;-72
2022/06/14 10:33:03;;;;;;;4.30;1.92;;;16.30;99.90;;;;;;7396661;19;20417;-73
2022/06/14 10:35:44;;;;;;;4.20;2.03;;;16.50;99.90;;;;;;7394801;19;20021;-72
2022/06/14 10:38:46;;;;;;;7.10;2.13;;;16.50;99.90;;;;;;7396727;19;20038;-72
2022/06/14 10:41:26;;;;;;;4.88;2.08;;;16.70;99.90;;;;;;7396560;19;20381;-72
2022/06/14 10:44:12;;;;;;;8.13;3.03;;;16.70;99.90;;;;;;7396927;19;20043;-72
2022/06/14 10:46:47;;;;;;;7.90;2.13;;;16.70;99.90;;;;;;7399438;19;20361;-72
2022/06/14 10:49:39;;;;;;;5.70;1.97;;;16.60;99.90;;;;;;7396293;19;20554;-72
2022/06/14 10:52:40;;;;;;;5.28;1.92;;;16.70;99.90;;;;;;7396395;19;20263;-72
2022/06/14 10:55:31;;;;;;;3.42;1.70;;;16.80;99.90;;;;;;7394526;19;20026;-72
2022/06/14 10:58:20;;;;;;;6.57;2.40;;;16.80;99.90;;;;;;7396002;19;20021;-72
2022/06/14 11:00:54;;;;;;;4.18;1.92;;;16.90;99.90;;;;;;7396396;19;20010;-72
2022/06/14 11:03:46;;;;;;;5.55;2.17;;;16.80;99.90;;;;;;7399547;19;20018;-72
2022/06/14 11:06:37;;;;;;;5.75;2.00;;;16.70;99.90;;;;;;7395091;19;20047;-72
2022/06/14 11:09:18;;;;;;;5.13;2.25;;;16.30;99.90;;;;;;7394924;19;20018;-72
2022/06/14 11:12:00;;;;;;;3.92;2.13;;;16.70;99.90;;;;;;7395565;19;20011;-73
2022/06/14 11:14:40;;;;;;;7.25;2.80;;;16.60;99.90;;;;;;7395261;19;20011;-72
2022/06/14 11:17:36;;;;;;;4.45;2.17;;;16.60;99.90;;;;;;7397945;19;20017;-72
2022/06/14 11:20:24;;;;;;;8.02;2.30;;;16.60;99.90;;;;;;7398257;19;20488;-72
2022/06/14 11:23:01;;;;;;;4.93;2.33;;;16.70;99.90;;;;;;7396141;19;20014;-72
2022/06/14 11:25:39;;;;;;;6.00;2.25;;;16.70;99.90;;;;;;7398895;19;20015;-73
2022/06/14 11:28:17;;;;;;;5.68;2.80;;;16.60;99.90;;;;;;7398527;19;20043;-73
2022/06/14 11:30:57;;;;;;;3.25;1.58;;;16.70;99.90;;;;;;7393997;19;20006;-73
2022/06/14 11:33:37;;;;;;;4.45;1.77;;;16.90;99.90;;;;;;7397479;19;20026;-73
2022/06/14 11:36:32;;;;;;;4.88;1.65;;;16.90;99.90;;;;;;7393931;19;20011;-73
2022/06/14 11:39:14;;;;;;;7.72;2.67;;;17.00;99.90;;;;;;7393205;19;20007;-73
2022/06/14 11:41:45;;;;;;;5.97;2.70;;;16.90;99.90;;;;;;7395288;19;20365;-73
2022/06/14 11:44:31;;;;;;;4.32;1.80;;;16.80;99.90;;;;;;7395135;19;20527;-73
2022/06/14 11:47:12;;;;;;;3.13;1.83;;;17.00;99.90;;;;;;7396578;19;20357;-73
2022/06/14 11:49:46;;;;;;;5.10;2.25;;;16.90;99.90;;;;;;7394410;19;20010;-73
2022/06/14 11:52:31;;;;;;;5.15;2.40;;;17.10;99.90;;;;;;7394225;19;20014;-73
2022/06/14 11:55:15;;;;;;;4.25;1.60;;;17.30;99.90;;;;;;7391699;19;20014;-73
2022/06/14 11:57:55;;;;;;;4.88;2.25;;;17.90;99.50;;;;;;7393977;19;20010;-73
2022/06/14 12:00:39;;;;;;;4.07;1.70;;;18.20;99.10;;;;;;7394311;19;20017;-73
2022/06/14 12:03:28;;;;;;;3.95;1.50;;;18.60;98.60;;;;;;7398813;19;20054;-73
2022/06/14 12:06:05;;;;;;;3.97;1.60;;;18.90;97.10;;;;;;7394778;19;20026;-73
2022/06/14 12:08:56;;;;;;;5.18;1.50;;;19.00;96.20;;;;;;7393350;19;20010;-73
2022/06/14 12:11:27;;;;;;;5.88;1.67;;;18.80;95.40;;;;;;7395256;19;20010;-73
2022/06/14 12:14:31;;;;;;;3.85;1.40;;;19.00;95.10;;;;;;7393886;19;20364;-73
2022/06/14 12:17:11;;;;;;;4.30;1.67;;;19.00;94.70;;;;;;7395569;19;20018;-73
2022/06/14 12:19:47;;;;;;;5.75;1.63;;;18.80;94.70;;;;;;7397152;19;20014;-73
2022/06/14 12:22:34;;;;;;;;;;;18.60;95.20;;;;;;7393303;19;20554;-73
2022/06/14 12:27:56;;;;;;;5.57;1.75;;;18.30;95.80;;;;;;7397449;19;20010;-73
2022/06/14 12:30:27;;;;;;;5.70;1.70;;;18.20;96.80;;;;;;7394371;19;20070;-72
2022/06/14 12:33:01;;;;;;;3.60;1.50;;;18.20;96.10;;;;;;7396595;19;20026;-73
2022/06/14 12:35:41;;;;;;;3.80;1.50;;;18.10;96.30;;;;;;7391349;19;20019;-72
2022/06/14 12:38:18;;;;;;;4.00;1.85;;;18.10;96.20;;;;;;7395004;19;20030;-73
2022/06/14 12:40:53;;;;;;;3.35;1.58;;;17.80;96.10;;;;;;7392606;19;20011;-72
2022/06/14 12:43:26;;;;;;;3.58;1.70;;;17.90;96.50;;;;;;7392676;19;20381;-72
2022/06/14 12:45:58;;;;;;;5.50;1.70;;;17.90;97.10;;;;;;7397656;19;20014;-73
2022/06/14 12:48:38;;;;;;;7.45;2.00;;;17.80;97.10;;;;;;7393143;19;20042;-73
2022/06/14 12:51:14;;;;;;;5.20;1.80;;;17.80;97.90;;;;;;7392493;19;20086;-72
2022/06/14 12:53:51;;;;;;;4.38;1.90;;;18.20;98.80;;;;;;7394453;19;20040;-73
2022/06/14 12:56:27;;;;;;;3.95;2.92;;;18.20;99.20;;;;;;7393451;19;20021;-73
2022/06/14 12:59:07;;;;;;;8.65;2.75;;;18.10;99.40;;;;;;7392102;19;20015;-73
2022/06/14 13:01:44;;;;;;;5.95;3.20;;;18.20;99.30;;;;;;7393615;19;20018;-72
2022/06/14 13:04:18;;;;;;;7.10;3.40;;;17.90;99.00;;;;;;7394022;19;20017;-72
2022/06/14 13:07:15;;;;;;;6.90;3.05;;;17.90;99.40;;;;;;7393738;19;20389;-73
2022/06/14 13:09:59;;;;;;;6.05;2.63;;;18.00;99.10;;;;;;7391625;19;20027;-73
2022/06/14 13:12:38;;;;;;;12.32;2.95;;;18.10;99.90;;;;;;7391278;19;20464;-73
2022/06/14 13:15:15;;;;;;;6.60;2.88;;;18.10;99.20;;;;;;7392689;19;20081;-73
2022/06/14 13:18:06;;;;;;;7.25;2.63;;;18.50;99.70;;;;;;7401123;19;20082;-73
2022/06/14 13:20:44;;;;;;;5.43;2.60;;;18.40;99.90;;;;;;7399904;19;20014;-73
2022/06/14 13:23:28;;;;;;;6.20;2.60;;;18.80;99.40;;;;;;7397774;19;20690;-73
2022/06/14 13:26:14;;;;;;;5.25;2.40;;;19.20;99.30;;;;;;7398882;19;20010;-73
2022/06/14 13:29:01;;;;;;;5.32;2.40;;;19.30;99.30;;;;;;7403477;19;20032;-73
2022/06/14 13:31:50;;;;;;;4.55;2.28;;;19.40;98.50;;;;;;7397659;19;20507;-73
2022/06/14 13:34:34;;;;;;;5.25;2.10;;;19.30;96.40;;;;;;7399839;19;20373;-73
2022/06/14 13:37:14;;;;;;;4.18;2.03;;;19.30;96.60;;;;;;7399480;19;20381;-73
2022/06/14 13:39:53;;;;;;;6.82;2.10;;;19.60;96.40;;;;;;7399179;19;20527;-73
2022/06/14 13:42:30;;;;;;;3.45;1.98;;;19.80;97.30;;;;;;7398814;19;20385;-73
2022/06/14 13:45:03;;;;;;;6.07;1.95;;;20.00;96.30;;;;;;7399031;19;20026;-73
2022/06/14 13:47:41;;;;;;;4.05;2.28;;;19.90;96.00;;;;;;7401966;19;20019;-73
2022/06/14 13:50:19;;;;;;;8.98;3.05;;;19.90;96.50;;;;;;7398717;19;20023;-73
2022/06/14 13:52:52;;;;;;;3.65;1.90;;;20.10;95.60;;;;;;7398394;19;20014;-73
2022/06/14 13:55:30;;;;;;;2.63;1.77;;;20.10;96.50;;;;;;7398256;19;20025;-73
2022/06/14 13:58:06;;;;;;;5.45;2.17;;;20.30;95.60;;;;;;7398813;19;20375;-73
2022/06/14 14:00:46;;;;;;;5.35;2.35;;;20.60;94.50;;;;;;7397489;19;20014;-73